Framingham, MA (01701)

5:09 AM EDT on March 24, 2017 (GMT -0400)
Framingham near Rt30/126 | | Change Station

Elev 265 ft 42.31 °N, 71.41 °W | Updated 8 minutes ago

Partly Cloudy
Partly Cloudy
25.5 °F
Feels Like 26 °F
N
1.0
Wind Variable Wind from WSW
Gusts 2.0 mph

Today
High -- | Low -- °F
--% Chance of Precip.
Yesterday
High -- | Low -- °F
Precip. -- in
Pressure 30.52 in
Visibility 10.0 miles
Clouds Clear
Windchill 26 °F
Dew Point 12 °F
Humidity 57%
Rainfall 0.00 in
Snow Depth Not available.
6:41 AM 7:02 PM
Waning Crescent, 16% visible
METAR KBED 240856Z AUTO 00000KT 10SM CLR M05/M11 A3047 RMK AO2 SLP335 T10501111 58009
Pressure 30.52 in
Visibility 10.0 miles
Clouds Clear
Windchill 26 °F
Dew Point 12 °F
Humidity 57%
Rainfall 0.00 in
Snow Depth Not available.
6:41 AM 7:02 PM
Waning Crescent, 16% visible
METAR KBED 240856Z AUTO 00000KT 10SM CLR M05/M11 A3047 RMK AO2 SLP335 T10501111 58009

Get Severe Weather Alerts

Thanks for signing up!

Be on the lookout for a verification email in your inbox.

You'll start receiving the daily forecast at 8 AM.

×

10-Day Weather Forecast

Almanac

Astronomy

Mar. 24, 2017 Rise Set
Actual Time
Civil Twilight
Nautical Twilight
Astronomical Twilight
Moon
Length of Visible Light
Length of Day
Tomorrow will be .
, % of the Moon is Illuminated

Today's Extremes

State Highs State Lows

Community

WunderPhotos

Upload Photos

1,962,540 photos uploaded!

WunderBlog® & News

Nearby

Air Quality

  Air Quality AQ Index Pollutant
Not available.

Snow Depth

Station Depth Elevation

Earthquake Activity

City Distance Mag. Time & Date
Minimum magnitude displayed is 2.5.

Earthquake Activity

City Distance Mag. Time & Date
Minimum magnitude displayed is 2.5.

Coastal Water Temperatures

Place Temperature

Stations

Nearby Weather Stations

Station Location Temp. Windchill Dew Point Humidity Wind Precip. Elev Updated Type
                   

Watches & Warnings

There are currently no watches in effect.